createdAt,value
2023-03-14T00:04:06.057Z,986.82
2023-03-14T00:10:29.014Z,986.72
2023-03-14T00:16:49.034Z,986.86
2023-03-14T00:23:11.986Z,986.9
2023-03-14T00:29:31.973Z,987
2023-03-14T00:35:55.048Z,986.94
2023-03-14T00:42:14.983Z,986.84
2023-03-14T00:48:38.040Z,986.84
2023-03-14T00:54:58.010Z,986.82
2023-03-14T01:01:20.993Z,986.82
2023-03-14T01:07:40.972Z,986.86
2023-03-14T01:14:04.036Z,986.88
2023-03-14T01:20:24.003Z,986.88
2023-03-14T01:26:47.020Z,986.82
2023-03-14T01:33:07.049Z,986.7
2023-03-14T01:39:30.028Z,986.68
2023-03-14T01:45:50.076Z,986.66
2023-03-14T01:52:13.012Z,986.64
2023-03-14T01:58:32.993Z,986.6
2023-03-14T02:04:55.993Z,986.56
2023-03-14T02:11:16.041Z,986.51
2023-03-14T02:17:39.032Z,986.58
2023-03-14T02:23:58.968Z,986.66
2023-03-14T02:30:21.989Z,986.68
2023-03-14T02:36:41.975Z,986.6
2023-03-14T02:43:04.988Z,986.51
2023-03-14T02:49:25.101Z,986.41
2023-03-14T02:55:47.993Z,986.29
2023-03-14T03:02:07.994Z,986.13
2023-03-14T03:08:30.991Z,986.09
2023-03-14T03:14:50.979Z,986.09
2023-03-14T03:21:13.986Z,986.04
2023-03-14T03:27:34.099Z,986.04
2023-03-14T03:33:57.011Z,986.09
2023-03-14T03:40:16.992Z,986.09
2023-03-14T03:46:40.022Z,986.04
2023-03-14T03:52:59.986Z,985.94
2023-03-14T03:59:23.010Z,985.9
2023-03-14T04:05:43.032Z,985.84
2023-03-14T04:12:05.987Z,985.84
2023-03-14T04:18:26.087Z,985.82
2023-03-14T04:41:14.018Z,985.62
2023-03-14T04:47:36.988Z,985.51
2023-03-14T04:53:57.007Z,985.43
2023-03-14T05:00:20.081Z,985.41
2023-03-14T05:06:40.006Z,985.33
2023-03-14T05:13:02.995Z,985.19
2023-03-14T05:19:22.997Z,985.14
2023-03-14T05:25:45.970Z,985.04
2023-03-14T05:32:06.026Z,985.02
2023-03-14T05:38:29.023Z,985
2023-03-14T05:44:48.998Z,984.94
2023-03-14T05:51:12.009Z,984.96
2023-03-14T05:57:32.022Z,985
2023-03-14T06:03:54.992Z,985.06
2023-03-14T06:10:14.994Z,985
2023-03-14T06:16:38.060Z,984.96
2023-03-14T06:22:58.002Z,984.92
2023-03-14T06:29:21.005Z,984.82
2023-03-14T06:35:41.059Z,984.78
2023-03-14T06:42:03.990Z,984.72
2023-03-14T06:48:23.985Z,984.7
2023-03-14T06:54:47.027Z,984.72
2023-03-14T07:01:07.044Z,984.76
2023-03-14T07:07:30.034Z,984.84
2023-03-14T07:13:50.043Z,984.92
2023-03-14T07:20:12.991Z,985
2023-03-14T07:26:33.005Z,984.98
2023-03-14T07:32:56.071Z,985.08
2023-03-14T07:39:15.996Z,985.08
2023-03-14T07:45:42.854Z,985.14
2023-03-14T07:51:59.138Z,985.19
2023-03-14T07:58:22.018Z,985.27
2023-03-14T08:04:42.004Z,985.29
2023-03-14T08:11:05.036Z,985.27
2023-03-14T08:17:25.976Z,985.23
2023-03-14T08:23:47.989Z,985.23
2023-03-14T08:30:08.040Z,985.23
2023-03-14T08:36:31.037Z,985.23
2023-03-14T08:42:51.001Z,985.33
2023-03-14T08:49:14.031Z,985.35
2023-03-14T08:55:33.993Z,985.41
2023-03-14T09:01:57.013Z,985.39
2023-03-14T09:08:17.039Z,985.39
2023-03-14T09:14:39.993Z,985.41
2023-03-14T09:20:59.987Z,985.59
2023-03-14T09:27:23.049Z,985.78
2023-03-14T09:33:43.004Z,985.86
2023-03-14T09:40:06.987Z,985.96
2023-03-14T10:03:29.517Z,986.37
2023-03-14T10:09:48.986Z,987
2023-03-14T10:16:15.012Z,987.57
2023-03-14T10:22:35.025Z,987.96
2023-03-14T10:28:58.299Z,988.29
2023-03-14T10:35:18.981Z,988.65
2023-03-14T10:41:42.032Z,988.94
2023-03-14T10:48:03.287Z,989.18
2023-03-14T10:54:25.070Z,989.39
2023-03-14T11:00:45.042Z,989.51
2023-03-14T11:07:08.008Z,989.63
2023-03-14T11:13:28.190Z,989.8
2023-03-14T11:19:51.228Z,989.88
2023-03-14T11:26:11.002Z,990.16
2023-03-14T11:32:34.058Z,990.3
2023-03-14T11:38:54.030Z,990.41
2023-03-14T11:45:17.150Z,990.55
2023-03-14T11:51:36.992Z,990.67
2023-03-14T11:58:00.267Z,990.73
2023-03-14T12:04:20.167Z,990.81
2023-03-14T12:10:43.018Z,991.18
2023-03-14T12:17:03.097Z,991.57
2023-03-14T12:23:26.048Z,991.82
2023-03-14T12:29:45.985Z,992.04
2023-03-14T12:36:09.073Z,992.24
2023-03-14T12:42:35.446Z,992.47
2023-03-14T12:48:51.995Z,992.77
2023-03-14T12:55:12.281Z,993.02
2023-03-14T13:01:35.035Z,993.2
2023-03-14T13:07:55.010Z,993.36
2023-03-14T13:14:18.070Z,993.49
2023-03-14T13:20:38.020Z,993.67
2023-03-14T13:27:01.181Z,993.81
2023-03-14T13:33:21.014Z,994.02
2023-03-14T13:39:44.023Z,994.22
2023-03-14T13:46:04.043Z,994.42
2023-03-14T13:52:28.041Z,994.59
2023-03-14T13:58:48.031Z,994.81
2023-03-14T14:05:11.012Z,994.94
2023-03-14T14:11:42.844Z,995.08
2023-03-14T14:17:54.006Z,995.32
2023-03-14T14:24:14.020Z,995.56
2023-03-14T14:30:37.023Z,995.73
2023-03-14T14:36:57.001Z,995.91
2023-03-14T14:43:19.986Z,996.12
2023-03-14T14:49:40.021Z,996.28
2023-03-14T15:12:28.086Z,997.02
2023-03-14T15:18:51.000Z,997.22
2023-03-14T15:25:15.492Z,997.36
2023-03-14T15:31:34.074Z,997.51
2023-03-14T15:37:54.028Z,997.63
2023-03-14T15:44:17.157Z,997.83
2023-03-14T15:50:37.039Z,997.95
2023-03-14T15:56:59.996Z,998.07
2023-03-14T16:03:20.006Z,998.23
2023-03-14T16:09:43.162Z,998.3
2023-03-14T16:16:03.019Z,998.44
2023-03-14T16:22:26.017Z,998.54
2023-03-14T16:28:46.018Z,998.64
2023-03-14T16:35:08.994Z,998.75
2023-03-14T16:41:29.213Z,998.93
2023-03-14T16:47:52.024Z,999.07
2023-03-14T16:54:12.017Z,999.2
2023-03-14T17:00:35.012Z,999.46
2023-03-14T17:06:55.015Z,999.62
2023-03-14T17:13:18.016Z,999.73
2023-03-14T17:19:38.009Z,999.89
2023-03-14T17:26:01.181Z,999.97
2023-03-14T17:32:21.075Z,1000.12
2023-03-14T17:38:44.051Z,1000.35
2023-03-14T17:45:04.023Z,1000.54
2023-03-14T17:51:27.057Z,1000.74
2023-03-14T17:57:47.065Z,1000.93
2023-03-14T18:04:10.134Z,1001.09
2023-03-14T18:10:30.028Z,1001.23
2023-03-14T18:16:53.034Z,1001.4
2023-03-14T18:23:13.089Z,1001.52
2023-03-14T18:29:35.978Z,1001.62
2023-03-14T18:35:56.109Z,1001.72
2023-03-14T18:42:19.121Z,1001.83
2023-03-14T18:48:39.018Z,1001.95
2023-03-14T18:55:02.204Z,1002.11
2023-03-14T19:01:22.083Z,1002.27
2023-03-14T19:07:44.986Z,1002.44
2023-03-14T19:14:04.994Z,1002.52
2023-03-14T19:20:27.992Z,1002.68
2023-03-14T19:26:48.030Z,1002.79
2023-03-14T19:33:11.102Z,1002.98
2023-03-14T19:39:31.026Z,1003.07
2023-03-14T19:45:54.104Z,1003.19
2023-03-14T20:07:44.991Z,1003.66
2023-03-14T20:14:07.998Z,1003.84
2023-03-14T20:20:27.976Z,1003.98
2023-03-14T20:26:51.026Z,1004.15
2023-03-14T20:33:11.074Z,1004.27
2023-03-14T20:39:35.454Z,1004.37
2023-03-14T20:45:54.121Z,1004.43
2023-03-14T20:52:17.013Z,1004.52
2023-03-14T20:58:37.005Z,1004.64
2023-03-14T21:05:00.194Z,1004.7
2023-03-14T21:11:19.981Z,1004.8
2023-03-14T21:17:43.001Z,1004.82
2023-03-14T21:24:03.214Z,1004.9
2023-03-14T21:30:25.987Z,1004.97
2023-03-14T21:36:47.727Z,1005.09
2023-03-14T21:43:09.046Z,1005.19
2023-03-14T21:49:29.005Z,1005.29
2023-03-14T21:55:51.991Z,1005.34
2023-03-14T22:02:12.237Z,1005.49
2023-03-14T22:08:35.081Z,1005.57
2023-03-14T22:14:55.001Z,1005.61
2023-03-14T22:21:18.038Z,1005.71
2023-03-14T22:27:37.989Z,1005.78
2023-03-14T22:34:00.995Z,1005.86
2023-03-14T22:40:21.020Z,1005.92
2023-03-14T22:46:44.015Z,1005.96
2023-03-14T22:53:03.987Z,1005.98
2023-03-14T22:59:27.009Z,1006
2023-03-14T23:22:25.003Z,1006.21
2023-03-14T23:28:45.019Z,1006.27
2023-03-14T23:35:08.013Z,1006.35
2023-03-14T23:41:28.071Z,1006.39
2023-03-14T23:47:50.983Z,1006.45
2023-03-14T23:54:11.080Z,1006.41
